PWSweather.com
Personal Weather Stations
Station Observations
J24K28P63
Vysocina, PocatkyCZ 39464

VysocinaPocatkyCZ 39464

Lat: 49.2594238, Lon: 15.2331769

Elevation: 2011

Station Type: Vantage Pro2+

http://meteo-jirkalina.com

High Low Average
Temperature 43.8°F6.6°F 29.1°F-1.6°F 37.5°F3.1°F
Dew Point 38.2°F3.4°F 23.0°F-5.0°F 32.7°F0.4°F
Winds 14.0 mph -22.5 mph - Calm Calm 6.4 mph 10.3 mph
Wind Gusts 18.0 mph29.0 mph -- 10.3 mph16.6 mph
Humidity 95% 67% 83%
Pressure 29.95 in1014.20 in 29.74 in1007.10 in -
Precipitation 0.01 in0.30 in - -
Hour Temp Dew Point Humidity Winds Wind Gusts Pressure Precip Precip Rate Daily Precip Total
12:00 AM 34.4°F1.3°C 30.9°F-0.6°C 87% 9.1 mph NW14.6 kmh NW 18.0 mph29.0 kmh 29.92 in1013.2 mb - 0.00 in0.0 mm 0.00 in0.0 mm
12:30 AM 34.1°F1.2°C 31.2°F-0.4°C 89% 9.0 mph NW14.5 kmh NW 16.0 mph25.7 kmh 29.92 in1013.2 mb - 0.00 in0.0 mm 0.00 in0.0 mm
01:00 AM 34.3°F1.3°C 31.4°F-0.3°C 89% 5.4 mph WNW8.7 kmh WNW 15.0 mph24.1 kmh 29.92 in1013.2 mb - 0.00 in0.0 mm 0.00 in0.0 mm
01:30 AM 34.3°F1.3°C 31.7°F-0.2°C 90% 7.9 mph WNW12.7 kmh WNW 16.0 mph25.7 kmh 29.92 in1013.2 mb - 0.00 in0.0 mm 0.00 in0.0 mm
02:00 AM 34.4°F1.3°C 31.8°F-0.1°C 90% 5.5 mph WNW8.9 kmh WNW 14.0 mph22.5 kmh 29.92 in1013.2 mb - 0.00 in0.0 mm 0.00 in0.0 mm
02:30 AM 34.0°F1.1°C 31.9°F-0.1°C 92% 4.4 mph WNW7.1 kmh WNW 7.0 mph11.3 kmh 29.93 in1013.5 mb - 0.00 in0.0 mm 0.00 in0.0 mm
03:00 AM 33.8°F1.0°C 32.3°F0.2°C 94% 7.4 mph W11.9 kmh W 13.0 mph20.9 kmh 29.93 in1013.5 mb - 0.00 in0.0 mm 0.00 in0.0 mm
03:30 AM 33.7°F0.9°C 32.4°F0.2°C 95% 4.8 mph W7.7 kmh W 12.0 mph19.3 kmh 29.92 in1013.2 mb - 0.01 in0.3 mm 0.01 in0.3 mm
04:00 AM 33.8°F1.0°C 32.5°F0.3°C 95% 4.3 mph WNW6.9 kmh WNW 11.0 mph17.7 kmh 29.91 in1012.9 mb - 0.00 in0.0 mm 0.01 in0.3 mm
04:30 AM 34.1°F1.2°C 32.0°F0.0°C 92% 5.7 mph WNW9.2 kmh WNW 13.0 mph20.9 kmh 29.91 in1012.9 mb - 0.00 in0.0 mm 0.01 in0.3 mm
05:00 AM 34.0°F1.1°C 31.9°F-0.1°C 92% 3.9 mph WSW6.3 kmh WSW 9.0 mph14.5 kmh 29.91 in1012.9 mb - 0.00 in0.0 mm 0.01 in0.3 mm
05:30 AM 34.0°F1.1°C 31.4°F-0.3°C 90% 10.6 mph SW17.1 kmh SW 13.0 mph20.9 kmh 29.91 in1012.9 mb - 0.00 in0.0 mm 0.01 in0.3 mm
06:00 AM 34.1°F1.2°C 30.9°F-0.6°C 88% 5.9 mph WSW9.5 kmh WSW 17.0 mph27.4 kmh 29.91 in1012.9 mb - 0.00 in0.0 mm 0.01 in0.3 mm
06:30 AM 34.1°F1.2°C 31.2°F-0.4°C 89% 4.9 mph W7.9 kmh W 11.0 mph17.7 kmh 29.93 in1013.5 mb - 0.00 in0.0 mm 0.01 in0.3 mm
07:00 AM 34.0°F1.1°C 31.4°F-0.3°C 90% 4.1 mph W6.6 kmh W 7.0 mph11.3 kmh 29.93 in1013.5 mb - 0.00 in0.0 mm 0.01 in0.3 mm
07:30 AM 33.8°F1.0°C 31.5°F-0.3°C 91% 3.2 mph WSW5.1 kmh WSW 5.0 mph8.0 kmh 29.93 in1013.5 mb - 0.00 in0.0 mm 0.01 in0.3 mm
08:00 AM 33.8°F1.0°C 31.2°F-0.4°C 90% 4.7 mph SW7.6 kmh SW 8.0 mph12.9 kmh 29.94 in1013.9 mb - 0.00 in0.0 mm 0.01 in0.3 mm
08:10 AM 40.2°F4.6°C 36.1°F2.3°C 85% 8.0 mph SW12.9 kmh SW 14.0 mph22.5 kmh 29.93 in1013.5 mb - 0.00 in0.0 mm 0.01 in0.3 mm
08:20 AM 40.4°F4.7°C 36.2°F2.3°C 85% 10.0 mph SW16.1 kmh SW 16.0 mph25.7 kmh 29.93 in1013.5 mb - 0.00 in0.0 mm 0.01 in0.3 mm
08:30 AM 33.5°F0.8°C 31.4°F-0.3°C 92% 5.1 mph WSW8.2 kmh WSW 7.0 mph11.3 kmh 29.95 in1014.2 mb - 0.00 in0.0 mm 0.01 in0.3 mm
08:40 AM 40.5°F4.7°C 36.0°F2.2°C 84% 6.0 mph SW9.7 kmh SW 8.0 mph12.9 kmh 29.93 in1013.5 mb - 0.00 in0.0 mm 0.01 in0.3 mm
08:50 AM 40.6°F4.8°C 36.2°F2.3°C 84% 8.0 mph SW12.9 kmh SW 14.0 mph22.5 kmh 29.93 in1013.5 mb - 0.00 in0.0 mm 0.01 in0.3 mm
09:00 AM 40.7°F4.8°C 35.9°F2.2°C 83% 9.0 mph SW14.5 kmh SW 15.0 mph24.1 kmh 29.93 in1013.5 mb - 0.00 in0.0 mm 0.01 in0.3 mm
09:10 AM 40.5°F4.7°C 35.7°F2.1°C 83% 8.0 mph SSW12.9 kmh SSW 12.0 mph19.3 kmh 29.93 in1013.5 mb - 0.00 in0.0 mm 0.01 in0.3 mm
09:20 AM 40.2°F4.6°C 35.8°F2.1°C 84% 12.0 mph SSW19.3 kmh SSW 15.0 mph24.1 kmh 29.93 in1013.5 mb - 0.00 in0.0 mm 0.01 in0.3 mm
09:30 AM 33.7°F0.9°C 31.4°F-0.3°C 91% 4.4 mph SW7.1 kmh SW 7.0 mph11.3 kmh 29.95 in1014.2 mb - 0.00 in0.0 mm 0.01 in0.3 mm
09:40 AM 40.0°F4.4°C 35.9°F2.2°C 85% 13.0 mph SW20.9 kmh SW 17.0 mph27.4 kmh 29.93 in1013.5 mb - 0.00 in0.0 mm 0.01 in0.3 mm
09:50 AM 40.2°F4.6°C 36.1°F2.3°C 85% 9.0 mph SW14.5 kmh SW 13.0 mph20.9 kmh 29.93 in1013.5 mb - 0.00 in0.0 mm 0.01 in0.3 mm
10:00 AM 40.5°F4.7°C 36.3°F2.4°C 85% 8.0 mph SW12.9 kmh SW 10.0 mph16.1 kmh 29.93 in1013.5 mb - 0.00 in0.0 mm 0.01 in0.3 mm
10:10 AM 40.9°F4.9°C 36.4°F2.4°C 84% 8.0 mph SW12.9 kmh SW 10.0 mph16.1 kmh 29.93 in1013.5 mb - 0.00 in0.0 mm 0.01 in0.3 mm
10:20 AM 41.0°F5.0°C 36.5°F2.5°C 84% 9.0 mph SSW14.5 kmh SSW 13.0 mph20.9 kmh 29.93 in1013.5 mb - 0.00 in0.0 mm 0.01 in0.3 mm
10:30 AM 35.6°F2.0°C 29.4°F-1.4°C 78% 3.1 mph WSW5.0 kmh WSW 6.0 mph9.7 kmh 29.95 in1014.2 mb - 0.00 in0.0 mm 0.01 in0.3 mm
10:40 AM 41.8°F5.4°C 37.0°F2.8°C 83% 9.0 mph SW14.5 kmh SW 13.0 mph20.9 kmh 29.93 in1013.5 mb - 0.00 in0.0 mm 0.01 in0.3 mm
10:50 AM 42.3°F5.7°C 37.5°F3.1°C 83% 9.0 mph SSW14.5 kmh SSW 14.0 mph22.5 kmh 29.93 in1013.5 mb - 0.00 in0.0 mm 0.01 in0.3 mm
11:00 AM 42.3°F5.7°C 37.5°F3.1°C 83% 12.0 mph SW19.3 kmh SW 15.0 mph24.1 kmh 29.93 in1013.5 mb - 0.00 in0.0 mm 0.01 in0.3 mm
11:10 AM 42.7°F5.9°C 37.9°F3.3°C 83% 12.0 mph SW19.3 kmh SW 18.0 mph29.0 kmh 29.93 in1013.5 mb - 0.00 in0.0 mm 0.01 in0.3 mm
11:20 AM 43.3°F6.3°C 38.2°F3.4°C 82% 12.0 mph SW19.3 kmh SW 16.0 mph25.7 kmh 29.92 in1013.2 mb - 0.00 in0.0 mm 0.01 in0.3 mm
11:30 AM 35.5°F1.9°C 29.3°F-1.5°C 78% 5.2 mph SW8.4 kmh SW 11.0 mph17.7 kmh 29.94 in1013.9 mb - 0.00 in0.0 mm 0.01 in0.3 mm
11:40 AM 43.8°F6.6°C 38.0°F3.3°C 80% 10.0 mph SW16.1 kmh SW 17.0 mph27.4 kmh 29.92 in1013.2 mb - 0.00 in0.0 mm 0.01 in0.3 mm
11:50 AM 43.6°F6.4°C 38.2°F3.4°C 81% 10.0 mph SW16.1 kmh SW 18.0 mph29.0 kmh 29.91 in1012.9 mb - 0.00 in0.0 mm 0.01 in0.3 mm
12:00 PM 36.0°F2.2°C 29.5°F-1.4°C 77% 2.4 mph SW3.9 kmh SW 4.0 mph6.4 kmh 29.93 in1013.5 mb - 0.00 in0.0 mm 0.01 in0.3 mm
12:10 PM 43.3°F6.3°C 37.5°F3.1°C 80% 12.0 mph SSW19.3 kmh SSW 14.0 mph22.5 kmh 29.91 in1012.9 mb - 0.00 in0.0 mm 0.01 in0.3 mm
12:20 PM 43.3°F6.3°C 37.5°F3.1°C 80% 14.0 mph SW22.5 kmh SW 18.0 mph29.0 kmh 29.91 in1012.9 mb - 0.00 in0.0 mm 0.01 in0.3 mm
12:30 PM 36.2°F2.3°C 29.4°F-1.4°C 76% 5.7 mph WSW9.2 kmh WSW 7.0 mph11.3 kmh 29.92 in1013.2 mb - 0.00 in0.0 mm 0.01 in0.3 mm
12:40 PM 43.3°F6.3°C 37.2°F2.9°C 79% 8.0 mph SW12.9 kmh SW 12.0 mph19.3 kmh 29.90 in1012.5 mb - 0.00 in0.0 mm 0.01 in0.3 mm
12:50 PM 43.3°F6.3°C 37.6°F3.1°C 80% 7.0 mph SW11.3 kmh SW 14.0 mph22.5 kmh 29.90 in1012.5 mb - 0.00 in0.0 mm 0.01 in0.3 mm
01:00 PM 43.3°F6.3°C 37.2°F2.9°C 79% 10.0 mph SW16.1 kmh SW 15.0 mph24.1 kmh 29.89 in1012.2 mb - 0.00 in0.0 mm 0.01 in0.3 mm
01:10 PM 43.4°F6.3°C 37.3°F2.9°C 79% 10.0 mph SW16.1 kmh SW 16.0 mph25.7 kmh 29.89 in1012.2 mb - 0.00 in0.0 mm 0.01 in0.3 mm
01:20 PM 43.7°F6.5°C 37.3°F2.9°C 78% 8.0 mph SW12.9 kmh SW 17.0 mph27.4 kmh 29.89 in1012.2 mb - 0.00 in0.0 mm 0.01 in0.3 mm
01:30 PM 36.3°F2.4°C 29.1°F-1.6°C 75% 4.8 mph WSW7.7 kmh WSW 11.0 mph17.7 kmh 29.90 in1012.5 mb - 0.00 in0.0 mm 0.01 in0.3 mm
01:40 PM 43.4°F6.3°C 36.3°F2.4°C 76% 10.0 mph SW16.1 kmh SW 13.0 mph20.9 kmh 29.88 in1011.9 mb - 0.00 in0.0 mm 0.01 in0.3 mm
01:50 PM 43.3°F6.3°C 36.6°F2.6°C 77% 13.0 mph SW20.9 kmh SW 15.0 mph24.1 kmh 29.88 in1011.9 mb - 0.00 in0.0 mm 0.01 in0.3 mm
02:00 PM 42.6°F5.9°C 35.9°F2.2°C 77% 12.0 mph SW19.3 kmh SW 17.0 mph27.4 kmh 29.88 in1011.9 mb - 0.00 in0.0 mm 0.01 in0.3 mm
02:10 PM 42.1°F5.6°C 36.0°F2.2°C 79% 10.0 mph SW16.1 kmh SW 14.0 mph22.5 kmh 29.87 in1011.5 mb - 0.00 in0.0 mm 0.01 in0.3 mm
02:20 PM 41.8°F5.4°C 35.8°F2.1°C 79% 6.0 mph SW9.7 kmh SW 9.0 mph14.5 kmh 29.87 in1011.5 mb - 0.00 in0.0 mm 0.01 in0.3 mm
02:30 PM 37.6°F3.1°C 27.6°F-2.4°C 67% 5.7 mph WNW9.2 kmh WNW 9.0 mph14.5 kmh 29.88 in1011.9 mb - 0.00 in0.0 mm 0.01 in0.3 mm
02:40 PM 41.8°F5.4°C 35.8°F2.1°C 79% 9.0 mph SW14.5 kmh SW 13.0 mph20.9 kmh 29.86 in1011.2 mb - 0.00 in0.0 mm 0.01 in0.3 mm
02:50 PM 41.6°F5.3°C 35.6°F2.0°C 79% 8.0 mph SSW12.9 kmh SSW 10.0 mph16.1 kmh 29.86 in1011.2 mb - 0.00 in0.0 mm 0.01 in0.3 mm
03:00 PM 41.6°F5.3°C 35.9°F2.2°C 80% 6.0 mph SW9.7 kmh SW 13.0 mph20.9 kmh 29.86 in1011.2 mb - 0.00 in0.0 mm 0.01 in0.3 mm
03:10 PM 41.5°F5.3°C 35.8°F2.1°C 80% 7.0 mph SW11.3 kmh SW 9.0 mph14.5 kmh 29.86 in1011.2 mb - 0.00 in0.0 mm 0.01 in0.3 mm
03:20 PM 41.3°F5.2°C 35.6°F2.0°C 80% 7.0 mph SSW11.3 kmh SSW 10.0 mph16.1 kmh 29.86 in1011.2 mb - 0.00 in0.0 mm 0.01 in0.3 mm
03:30 PM 36.2°F2.3°C 28.7°F-1.8°C 74% 3.6 mph SW5.8 kmh SW 6.0 mph9.7 kmh 29.86 in1011.2 mb - 0.00 in0.0 mm 0.01 in0.3 mm
03:40 PM 41.1°F5.1°C 35.7°F2.1°C 81% 7.0 mph SW11.3 kmh SW 10.0 mph16.1 kmh 29.86 in1011.2 mb - 0.00 in0.0 mm 0.01 in0.3 mm
03:50 PM 40.8°F4.9°C 35.4°F1.9°C 81% 6.0 mph SW9.7 kmh SW 9.0 mph14.5 kmh 29.85 in1010.8 mb - 0.00 in0.0 mm 0.01 in0.3 mm
04:00 PM 40.6°F4.8°C 35.2°F1.8°C 81% 6.0 mph SW9.7 kmh SW 8.0 mph12.9 kmh 29.85 in1010.8 mb - 0.00 in0.0 mm 0.01 in0.3 mm
04:30 PM 35.0°F1.7°C 28.2°F-2.1°C 76% 4.4 mph SW7.1 kmh SW 6.0 mph9.7 kmh 29.85 in1010.8 mb - 0.00 in0.0 mm 0.01 in0.3 mm
05:00 PM 34.0°F1.1°C 27.9°F-2.3°C 78% 0.3 mph SW0.5 kmh SW 1.0 mph1.6 kmh 29.85 in1010.8 mb - 0.00 in0.0 mm 0.01 in0.3 mm
05:30 PM 33.4°F0.8°C 27.9°F-2.3°C 80% 1.4 mph SW2.3 kmh SW 4.0 mph6.4 kmh 29.84 in1010.5 mb - 0.00 in0.0 mm 0.01 in0.3 mm
06:00 PM 32.9°F0.5°C 27.7°F-2.4°C 81% 0.9 mph SW1.4 kmh SW 2.0 mph3.2 kmh 29.83 in1010.2 mb - 0.00 in0.0 mm 0.01 in0.3 mm
06:30 PM 32.7°F0.4°C 27.8°F-2.3°C 82% 1.6 mph SW2.6 kmh SW 2.0 mph3.2 kmh 29.82 in1009.8 mb - 0.00 in0.0 mm 0.01 in0.3 mm
07:00 PM 32.4°F0.2°C 27.2°F-2.7°C 81% 0.4 mph SW0.6 kmh SW 2.0 mph3.2 kmh 29.81 in1009.5 mb - 0.00 in0.0 mm 0.01 in0.3 mm
07:30 PM 32.4°F0.2°C 27.2°F-2.7°C 81% 1.1 mph SW1.8 kmh SW 3.0 mph4.8 kmh 29.81 in1009.5 mb - 0.00 in0.0 mm 0.01 in0.3 mm
08:00 PM 31.6°F-0.2°C 26.7°F-2.9°C 82% Calm Calm -- 29.80 in1009.1 mb - 0.00 in0.0 mm 0.01 in0.3 mm
08:30 PM 29.8°F-1.2°C 25.9°F-3.4°C 85% Calm Calm -- 29.80 in1009.1 mb - 0.00 in0.0 mm 0.01 in0.3 mm
09:00 PM 29.1°F-1.6°C 26.0°F-3.3°C 88% 0.1 mph SW0.2 kmh SW -- 29.79 in1008.8 mb - 0.00 in0.0 mm 0.01 in0.3 mm
09:30 PM 30.0°F-1.1°C 25.5°F-3.6°C 83% 1.8 mph SW2.9 kmh SW 4.0 mph6.4 kmh 29.79 in1008.8 mb - 0.00 in0.0 mm 0.01 in0.3 mm
10:00 PM 30.6°F-0.8°C 24.2°F-4.3°C 77% 1.3 mph SW2.1 kmh SW 4.0 mph6.4 kmh 29.79 in1008.8 mb - 0.00 in0.0 mm 0.01 in0.3 mm
10:30 PM 31.2°F-0.4°C 23.9°F-4.5°C 74% 3.0 mph SW4.8 kmh SW 4.0 mph6.4 kmh 29.79 in1008.8 mb - 0.00 in0.0 mm 0.01 in0.3 mm
11:00 PM 30.9°F-0.6°C 23.3°F-4.8°C 73% 2.2 mph SW3.5 kmh SW 2.0 mph3.2 kmh 29.78 in1008.5 mb - 0.00 in0.0 mm 0.01 in0.3 mm
11:30 PM 30.3°F-0.9°C 23.0°F-5.0°C 74% Calm Calm -- 29.77 in1008.1 mb - 0.00 in0.0 mm 0.01 in0.3 mm
11:40 PM 31.9°F-0.1°C 28.8°F-1.8°C 88% 1.0 mph NE1.6 kmh NE 2.0 mph3.2 kmh 29.74 in1007.1 mb - 0.00 in0.0 mm 0.01 in0.3 mm